Los Angeles, California
Traffic Map
Current Weather Conditions
Los Angeles, California
Overcast Haze
Overcast
66°
Feels Like: 66°
Wind Chill: 66° Ceiling: 1000
Heat Index: 66° Visibility: 5mi
Dew Point: 61° Wind: 0mph
Humidity: 84% Direction: ° ()
Pressure: 29.9in Gusts: 0mph
Raw Report DataKCQT 220947Z AUTO 00000KT 5SM HZ OVC010 19/16 A2990 RMK AO2 SLP121 T01890161
Traffic Incident Summary
Active as of:
Severity:
Category:
InformationThere was an issue retrieving the traffic information for this location. Please try a different location or try again shortly.
Advertisements